createdAt,value
2019-01-12T00:02:44.154Z,4.90
2019-01-12T00:07:43.698Z,5.43
2019-01-12T00:12:43.417Z,4.70
2019-01-12T00:17:42.948Z,7.57
2019-01-12T00:22:42.491Z,5.67
2019-01-12T00:27:42.053Z,5.43
2019-01-12T00:32:41.590Z,4.97
2019-01-12T00:37:41.121Z,5.40
2019-01-12T00:42:40.749Z,4.17
2019-01-12T00:47:40.289Z,6.60
2019-01-12T00:52:39.822Z,4.53
2019-01-12T00:57:39.466Z,4.77
2019-01-12T01:02:39.157Z,5.77
2019-01-12T01:07:38.797Z,6.77
2019-01-12T01:12:38.345Z,4.70
2019-01-12T01:17:37.886Z,5.77
2019-01-12T01:22:37.624Z,5.03
2019-01-12T01:27:37.229Z,4.53
2019-01-12T01:32:36.766Z,4.87
2019-01-12T01:37:36.313Z,7.10
2019-01-12T01:42:35.861Z,6.37
2019-01-12T01:47:35.411Z,5.37
2019-01-12T01:52:35.135Z,4.50
2019-01-12T01:57:34.846Z,5.50
2019-01-12T02:02:34.382Z,4.90
2019-01-12T02:07:33.950Z,6.97
2019-01-12T02:12:33.485Z,7.23
2019-01-12T02:17:33.018Z,5.70
2019-01-12T02:22:32.575Z,5.00
2019-01-12T02:27:32.107Z,4.77
2019-01-12T02:32:31.647Z,5.90
2019-01-12T02:37:31.231Z,4.90
2019-01-12T02:42:30.770Z,3.70
2019-01-12T02:47:30.306Z,4.73
2019-01-12T02:52:30.096Z,5.20
2019-01-12T02:57:29.643Z,6.53
2019-01-12T03:02:29.227Z,5.47
2019-01-12T03:07:28.842Z,4.77
2019-01-12T03:12:28.392Z,5.30
2019-01-12T03:17:40.154Z,5.00
2019-01-12T03:22:39.725Z,5.27
2019-01-12T03:27:40.338Z,5.07
2019-01-12T03:32:39.902Z,5.53
2019-01-12T03:37:39.431Z,4.70
2019-01-12T03:42:38.971Z,5.73
2019-01-12T03:47:38.597Z,5.90
2019-01-12T03:52:38.155Z,4.50
2019-01-12T03:57:37.692Z,5.63
2019-01-12T04:02:37.239Z,4.90
2019-01-12T04:07:36.783Z,5.13
2019-01-12T04:12:36.321Z,4.10
2019-01-12T04:17:35.872Z,4.70
2019-01-12T04:22:35.410Z,5.00
2019-01-12T04:27:34.972Z,5.50
2019-01-12T04:32:34.702Z,5.20
2019-01-12T04:37:34.343Z,4.63
2019-01-12T04:42:34.966Z,5.67
2019-01-12T04:47:34.513Z,4.90
2019-01-12T04:52:34.125Z,4.83
2019-01-12T04:57:33.709Z,4.63
2019-01-12T05:02:33.252Z,5.07
2019-01-12T05:07:32.825Z,5.23
2019-01-12T05:12:32.367Z,4.90
2019-01-12T05:17:31.903Z,5.60
2019-01-12T05:22:31.458Z,6.93
2019-01-12T05:27:31.037Z,4.70
2019-01-12T05:32:30.582Z,3.90
2019-01-12T05:37:30.117Z,4.37
2019-01-12T05:42:29.685Z,4.37
2019-01-12T05:47:29.241Z,4.50
2019-01-12T05:52:28.780Z,4.10
2019-01-12T05:57:28.330Z,3.53
2019-01-12T06:02:27.881Z,3.50
2019-01-12T06:07:27.431Z,4.97
2019-01-12T06:12:26.966Z,3.67
2019-01-12T06:17:26.534Z,4.70
2019-01-12T06:22:26.074Z,4.00
2019-01-12T06:27:25.615Z,4.30
2019-01-12T06:32:25.155Z,5.27
2019-01-12T06:37:24.771Z,3.83
2019-01-12T06:42:24.401Z,3.93
2019-01-12T06:47:23.959Z,3.40
2019-01-12T06:52:23.503Z,3.57
2019-01-12T06:57:23.067Z,3.47
2019-01-12T07:02:22.610Z,2.93
2019-01-12T07:07:22.157Z,3.30
2019-01-12T07:12:21.707Z,4.20
2019-01-12T07:17:21.254Z,4.70
2019-01-12T07:22:20.806Z,5.03
2019-01-12T07:27:20.356Z,3.60
2019-01-12T07:32:19.938Z,3.73
2019-01-12T07:37:19.482Z,3.83
2019-01-12T07:42:19.025Z,4.60
2019-01-12T07:47:18.583Z,4.07
2019-01-12T07:52:18.122Z,4.03
2019-01-12T07:57:17.654Z,4.00
2019-01-12T08:02:17.199Z,3.83
2019-01-12T08:07:16.754Z,3.63
2019-01-12T08:12:16.343Z,4.67
2019-01-12T08:17:15.895Z,4.37
2019-01-12T08:22:15.430Z,2.77
2019-01-12T08:27:16.132Z,5.60
2019-01-12T08:32:15.803Z,4.03
2019-01-12T08:37:15.354Z,3.67
2019-01-12T08:42:14.897Z,4.60
2019-01-12T08:47:14.438Z,3.53
2019-01-12T08:52:14.034Z,4.37
2019-01-12T08:57:13.570Z,3.73
2019-01-12T09:02:13.133Z,3.40
2019-01-12T09:07:12.676Z,3.30
2019-01-12T09:12:12.231Z,3.80
2019-01-12T09:17:11.811Z,3.33
2019-01-12T09:22:11.351Z,3.10
2019-01-12T09:27:10.963Z,3.30
2019-01-12T09:32:10.529Z,3.10
2019-01-12T09:37:10.560Z,2.27
2019-01-12T09:42:10.151Z,2.50
2019-01-12T09:47:09.705Z,1.67
2019-01-12T09:52:09.325Z,2.77
2019-01-12T09:57:09.148Z,1.70
2019-01-12T10:02:08.870Z,1.87
2019-01-12T10:07:08.419Z,1.93
2019-01-12T10:12:07.959Z,1.23
2019-01-12T10:17:07.502Z,1.60
2019-01-12T10:22:07.046Z,1.40
2019-01-12T10:27:06.617Z,1.07
2019-01-12T10:32:06.149Z,1.53
2019-01-12T10:37:06.155Z,1.20
2019-01-12T10:42:05.789Z,1.13
2019-01-12T10:47:05.416Z,0.83
2019-01-12T10:52:05.310Z,1.43
2019-01-12T10:57:05.552Z,0.80
2019-01-12T11:02:06.829Z,2.80
2019-01-12T11:07:07.374Z,1.50
2019-01-12T11:12:08.083Z,1.23
2019-01-12T11:17:08.667Z,2.00
2019-01-12T11:22:09.205Z,1.10
2019-01-12T11:27:12.330Z,1.97
2019-01-12T11:32:10.155Z,1.30
2019-01-12T11:37:10.571Z,1.90
2019-01-12T11:42:10.274Z,1.10
2019-01-12T11:47:11.059Z,1.47
2019-01-12T11:52:10.589Z,1.40
2019-01-12T11:57:18.951Z,1.60
2019-01-12T12:02:14.455Z,1.50
2019-01-12T12:07:20.034Z,1.97
2019-01-12T12:12:19.926Z,1.50
2019-01-12T12:17:22.869Z,1.87
2019-01-12T12:22:22.455Z,1.57
2019-01-12T12:27:25.971Z,1.83
2019-01-12T12:32:23.235Z,5.63
2019-01-12T12:37:22.791Z,2.50
2019-01-12T12:42:22.342Z,2.10
2019-01-12T12:47:21.901Z,1.50
2019-01-12T12:52:21.443Z,1.80
2019-01-12T12:57:21.007Z,2.27
2019-01-12T13:02:20.560Z,1.83
2019-01-12T13:07:20.090Z,2.00
2019-01-12T13:12:19.750Z,1.13
2019-01-12T13:17:19.289Z,1.50
2019-01-12T13:22:18.818Z,1.60
2019-01-12T13:27:18.353Z,2.67
2019-01-12T13:32:17.887Z,1.90
2019-01-12T13:37:17.490Z,1.90
2019-01-12T13:42:17.030Z,2.00
2019-01-12T13:47:20.839Z,2.63
2019-01-12T13:52:17.799Z,2.13
2019-01-12T13:57:17.335Z,1.17
2019-01-12T14:02:17.139Z,2.77
2019-01-12T14:07:16.674Z,2.77
2019-01-12T14:12:16.215Z,2.43
2019-01-12T14:17:15.741Z,1.93
2019-01-12T14:22:15.277Z,2.50
2019-01-12T14:27:14.811Z,2.13
2019-01-12T14:32:14.343Z,1.97
2019-01-12T14:37:13.873Z,2.40
2019-01-12T14:42:13.417Z,2.80
2019-01-12T14:47:12.959Z,2.37
2019-01-12T14:52:12.497Z,2.80
2019-01-12T14:57:12.054Z,2.60
2019-01-12T15:02:11.605Z,2.93
2019-01-12T15:07:11.216Z,2.33
2019-01-12T15:12:10.743Z,3.37
2019-01-12T15:17:13.529Z,3.13
2019-01-12T15:22:15.727Z,3.17
2019-01-12T15:27:17.936Z,2.40
2019-01-12T15:32:20.024Z,2.93
2019-01-12T15:37:23.999Z,2.73
2019-01-12T15:42:26.991Z,2.40
2019-01-12T15:47:28.955Z,3.40
2019-01-12T15:52:28.537Z,2.80
2019-01-12T15:57:28.081Z,3.60
2019-01-12T16:02:27.599Z,4.10
2019-01-12T16:07:27.147Z,4.23
2019-01-12T16:12:26.681Z,3.80
2019-01-12T16:17:26.294Z,2.77
2019-01-12T16:22:25.846Z,2.93
2019-01-12T16:27:25.374Z,3.77
2019-01-12T16:32:25.102Z,3.03
2019-01-12T16:37:24.836Z,3.10
2019-01-12T16:42:24.640Z,3.77
2019-01-12T16:47:24.374Z,3.50
2019-01-12T16:52:23.910Z,3.27
2019-01-12T16:57:23.447Z,4.43
2019-01-12T17:02:23.610Z,3.13
2019-01-12T17:07:23.238Z,3.63
2019-01-12T17:12:22.807Z,3.00
2019-01-12T17:17:22.414Z,4.07
2019-01-12T17:22:22.475Z,3.40
2019-01-12T17:27:22.246Z,4.00
2019-01-12T17:32:22.234Z,3.60
2019-01-12T17:37:21.787Z,4.23
2019-01-12T17:42:21.484Z,4.60
2019-01-12T17:47:21.042Z,4.60
2019-01-12T17:52:20.770Z,4.53
2019-01-12T17:57:20.309Z,5.53
2019-01-12T18:02:19.931Z,5.17
2019-01-12T18:07:19.487Z,5.70
2019-01-12T18:12:20.126Z,5.07
2019-01-12T18:17:19.774Z,5.40
2019-01-12T18:22:19.307Z,5.60
2019-01-12T18:27:20.262Z,5.10
2019-01-12T18:32:19.902Z,5.40
2019-01-12T18:37:19.445Z,5.47
2019-01-12T18:42:18.998Z,5.20
2019-01-12T18:47:18.548Z,6.10
2019-01-12T18:52:18.076Z,6.03
2019-01-12T18:57:17.603Z,5.40
2019-01-12T19:02:17.182Z,5.70
2019-01-12T19:07:16.725Z,6.50
2019-01-12T19:12:16.275Z,5.20
2019-01-12T19:17:15.798Z,5.00
2019-01-12T19:22:15.482Z,4.23
2019-01-12T19:27:15.017Z,4.43
2019-01-12T19:32:14.567Z,5.63
2019-01-12T19:37:14.106Z,4.03
2019-01-12T19:42:13.666Z,4.30
2019-01-12T19:47:13.214Z,4.73
2019-01-12T19:52:12.822Z,4.70
2019-01-12T19:57:12.369Z,3.90
2019-01-12T20:02:11.917Z,3.83
2019-01-12T20:07:11.469Z,3.40
2019-01-12T20:12:11.042Z,3.50
2019-01-12T20:17:10.660Z,3.00
2019-01-12T20:22:11.406Z,3.90
2019-01-12T20:27:11.123Z,3.40
2019-01-12T20:32:19.714Z,3.23
2019-01-12T20:37:53.246Z,4.30
2019-01-12T20:43:18.354Z,3.70
2019-01-12T20:48:51.566Z,3.90
2019-01-12T20:54:27.145Z,3.07
2019-01-12T20:59:39.938Z,2.63
2019-01-12T21:05:10.524Z,2.63
2019-01-12T21:10:32.454Z,2.50
2019-01-12T21:15:40.370Z,2.73
2019-01-12T21:20:40.039Z,3.23
2019-01-12T21:25:39.587Z,2.87
2019-01-12T21:30:39.459Z,2.50
2019-01-12T21:35:38.995Z,2.80
2019-01-12T21:40:38.727Z,2.40
2019-01-12T21:45:38.717Z,1.80
2019-01-12T21:50:39.570Z,2.03
2019-01-12T21:55:39.291Z,2.27
2019-01-12T22:00:39.002Z,2.00
2019-01-12T22:05:38.674Z,2.10
2019-01-12T22:10:38.479Z,2.23
2019-01-12T22:15:38.200Z,1.97
2019-01-12T22:20:37.927Z,2.20
2019-01-12T22:25:37.457Z,2.97
2019-01-12T22:30:37.264Z,1.90
2019-01-12T22:35:36.866Z,2.00
2019-01-12T22:40:36.417Z,1.90
2019-01-12T22:45:35.974Z,1.93
2019-01-12T22:50:35.519Z,1.60
2019-01-12T22:55:35.044Z,2.30
2019-01-12T23:00:58.229Z,2.07
2019-01-12T23:05:58.633Z,1.70
2019-01-12T23:10:58.169Z,1.33
2019-01-12T23:15:57.700Z,1.60
2019-01-12T23:20:57.238Z,2.40
2019-01-12T23:25:56.843Z,2.40
2019-01-12T23:30:56.362Z,1.03
2019-01-12T23:35:56.061Z,1.03
2019-01-12T23:40:55.589Z,1.13
2019-01-12T23:45:55.129Z,1.60
2019-01-12T23:50:54.661Z,1.43
2019-01-12T23:55:54.203Z,0.90
